Airfield :
LOGIN :

Register | Disclaimer

   EN    FR    IT 

 










Legend :    VFR   Marginal VFR   IFR   Intensive IFR   Very Intensive IFR
Visi :
Ceiling :
>= 8 km
>= 3000ft
5 to 8 km
1000 to 3000 ft
1500m to 5 km
500 to 1000 ft
800 to 1500m
200 to 500 ft
< 800m
< 200 ft
Symbols :   Thunderstorms  Fog  Heavy snow  Heavy precipitations  Wind > 20 kt
SIGMETs :     Misc.  Thunderstorms  Icing  Turbulence  Mountain Waves  Volcanic Ashes







- Airport Elevation : -11 ft
- IATA code : AMS


EHAM - Amsterdam Schiphol

CURRENT METAR :
  • 112125Z 33001KT CAVOK 02/01 Q1025 NOSIG

EXPIRED METARs :
  • 112055Z 05001KT CAVOK 02/01 Q1025 NOSIG
  • 112025Z 02001KT CAVOK 02/02 Q1025 NOSIG
  • 111955Z 27002KT 9999 FEW048 04/03 Q1024 NOSIG
  • 111925Z 31002KT 9999 SCT048 03/03 Q1024 NOSIG
  • 111855Z 32002KT 9999 BKN048 04/03 Q1024 NOSIG

TAF TAF EHAM
Valid from the 11 at 18:00 until the 13 at 00:00 UTC


111712Z 1118/1224 VRB03KT 9999 SCT030
PROB40 1200/1209 6000 MIFG
PROB30
TEMPO 1202/1208 1200 BCFG
BECMG 1208/1211 10008KT
PROB30 1215/1224 BKN015
No reported NOTAMs for that airfield.



MET'MAP, your aeronautical weather chart ! - Copyright ORBIFLY December 2007 - Disclaimer

ORBIFLY MET'MAP TEAM :

Programming & Development : Alexandra Zaïnal
Concept & Development : Baudouin d'Aumeries
Co-Development & Prog : Marc-Olivier Méhu
Technical & hardware support : Manuel Goepfert

Contact : metmap@orbifly.com




SOURCES & CREDITS :

   NOAA